Terminal Aerodrome Forecast
Issued by NWS

Home | Current Version | Previous Version | Text Only | Print | Product List | Glossary On
Versions: 1 2 3 4 5 6 7 8 9 10 11 12 13 14 15 16 17 18 19 20 21 22 23 24 25
000
FTUS46 KLOX 021100
TAFBUR
TAF
KBUR 021125Z 0212/0312 VRB03KT P6SM SCT060
     FM022100 16007KT P6SM VCSH SCT025 BKN035
     FM030200 VRB03KT P6SM VCSH SCT025 BKN040
     FM031000 VRB03KT P6SM SCT060=

USA.gov is the U.S. government's official web portal to all federal, state and local government web resources and services.